Time;durP1;ratioP1;P1;durP2;ratioP2;P2;SDS_P1;SDS_P2;PMS_P1;PMS_P2;Temp;Humidity;BMP_temperature;BMP_pressure;BME280_temperature;BME280_humidity;BME280_pressure;Samples;Min_cycle;Max_cycle;Signal;HPM_P1;HPM_P2
2022/09/21 00:02:25;;;;;;;5.55;1.58;;;21.90;57.10;;;;;;10334664;28;20096;-36
2022/09/21 00:07:27;;;;;;;4.18;1.60;;;21.80;57.00;;;;;;10338539;28;20494;-35
2022/09/21 00:12:32;;;;;;;4.00;1.58;;;21.80;57.10;;;;;;10341709;28;20428;-35
2022/09/21 00:17:34;;;;;;;5.13;1.60;;;21.80;57.10;;;;;;10335278;28;20067;-36
2022/09/21 00:22:36;;;;;;;5.03;1.75;;;21.80;57.10;;;;;;10327954;28;20042;-36
2022/09/21 00:27:40;;;;;;;7.68;2.42;;;21.80;57.10;;;;;;10329416;28;20042;-34
2022/09/21 00:32:42;;;;;;;5.00;1.60;;;21.70;57.10;;;;;;10341500;28;20551;-35
2022/09/21 00:37:44;;;;;;;3.72;1.42;;;21.70;57.00;;;;;;10336760;28;20112;-34
2022/09/21 00:42:47;;;;;;;4.63;1.40;;;21.70;57.10;;;;;;10328558;28;20500;-36
2022/09/21 00:47:51;;;;;;;4.50;2.28;;;21.70;57.00;;;;;;10340076;28;20074;-34
2022/09/21 00:52:56;;;;;;;5.55;1.88;;;21.70;57.10;;;;;;10326232;28;20664;-34
2022/09/21 00:58:03;;;;;;;3.67;1.60;;;21.70;57.00;;;;;;10328622;28;20496;-35
2022/09/21 01:03:05;;;;;;;2.70;1.60;;;21.70;57.10;;;;;;10332126;28;20057;-35
2022/09/21 01:08:11;;;;;;;;;;;21.60;57.10;;;;;;10332441;28;20706;-34
2022/09/21 01:13:24;;;;;;;3.80;1.67;;;21.60;57.00;;;;;;10331819;28;19925;-35
2022/09/21 01:18:34;;;;;;;5.00;1.90;;;21.60;57.10;;;;;;10333587;28;20073;-34
2022/09/21 01:23:49;;;;;;;3.17;1.75;;;21.60;57.10;;;;;;10322686;28;20050;-35
2022/09/21 01:29:09;;;;;;;1.85;1.17;;;21.60;57.10;;;;;;10325621;28;20644;-33
2022/09/21 01:34:18;;;;;;;3.03;1.67;;;21.60;57.20;;;;;;10327807;28;20050;-34
2022/09/21 01:39:22;;;;;;;3.33;1.50;;;21.50;57.20;;;;;;10330540;28;20057;-35
2022/09/21 01:44:29;;;;;;;5.15;2.70;;;21.60;57.10;;;;;;10338218;28;20398;-35
2022/09/21 01:49:36;;;;;;;3.92;1.70;;;21.50;57.10;;;;;;10336932;28;20129;-35
2022/09/21 01:54:42;;;;;;;2.38;1.58;;;21.50;57.10;;;;;;10355183;28;20109;-35
2022/09/21 01:59:50;;;;;;;4.28;1.98;;;21.50;57.20;;;;;;10339805;28;20046;-35
2022/09/21 02:04:52;;;;;;;3.78;1.90;;;21.50;57.20;;;;;;10339374;28;20533;-35
2022/09/21 02:09:55;;;;;;;4.57;1.85;;;21.50;57.20;;;;;;10364510;28;20478;-35
2022/09/21 02:14:59;;;;;;;2.35;1.30;;;21.50;57.20;;;;;;10339379;28;20064;-34
2022/09/21 02:20:10;;;;;;;3.80;1.67;;;21.50;57.20;;;;;;10355283;28;20501;-36
2022/09/21 02:25:16;;;;;;;2.20;1.30;;;21.50;57.20;;;;;;10353104;28;20141;-35
2022/09/21 02:30:21;;;;;;;5.78;1.77;;;21.40;57.20;;;;;;10351051;28;20045;-35
2022/09/21 02:35:32;;;;;;;3.03;1.30;;;21.40;57.20;;;;;;10358706;28;20144;-34
2022/09/21 02:40:38;;;;;;;2.85;1.40;;;21.40;57.30;;;;;;10361066;28;20453;-35
2022/09/21 02:45:46;;;;;;;3.22;1.33;;;21.30;57.30;;;;;;10353179;28;20058;-34
2022/09/21 02:50:52;;;;;;;2.35;1.35;;;21.40;57.40;;;;;;10346027;28;20181;-36
2022/09/21 02:55:56;;;;;;;3.13;1.48;;;21.30;57.50;;;;;;10357378;28;20050;-35
2022/09/21 03:00:59;;;;;;;4.35;2.00;;;21.30;57.40;;;;;;10348465;28;20066;-35
2022/09/21 03:06:01;;;;;;;2.42;1.30;;;21.30;57.50;;;;;;10367181;28;20183;-35
2022/09/21 03:11:03;;;;;;;;;;;21.30;57.50;;;;;;10365679;28;20041;-35
2022/09/21 03:16:07;;;;;;;2.00;1.10;;;21.30;57.50;;;;;;10354543;28;19933;-36
2022/09/21 03:21:09;;;;;;;4.15;1.25;;;21.30;57.60;;;;;;10352685;28;20137;-35
2022/09/21 03:26:11;;;;;;;2.17;1.33;;;21.20;57.70;;;;;;10354979;28;20128;-35
2022/09/21 03:31:14;;;;;;;2.25;1.40;;;21.20;57.60;;;;;;10348653;28;20092;-36
2022/09/21 03:36:17;;;;;;;1.98;1.17;;;21.20;57.80;;;;;;10358247;28;20479;-35
2022/09/21 03:41:18;;;;;;;2.58;1.20;;;21.20;57.70;;;;;;10352650;28;20042;-35
2022/09/21 03:46:22;;;;;;;2.22;1.55;;;21.20;57.80;;;;;;10351989;28;20053;-34
2022/09/21 03:51:23;;;;;;;2.50;1.10;;;21.20;57.70;;;;;;10348750;28;20143;-37
2022/09/21 03:56:25;;;;;;;2.50;1.42;;;21.10;57.80;;;;;;10350690;28;20042;-36
2022/09/21 04:01:28;;;;;;;2.03;0.95;;;21.20;57.80;;;;;;10349274;28;20046;-35
2022/09/21 04:06:30;;;;;;;1.13;0.90;;;21.20;57.80;;;;;;10361091;28;20116;-34
2022/09/21 04:11:32;;;;;;;1.38;0.90;;;21.10;57.90;;;;;;10352241;28;20049;-34
2022/09/21 04:16:35;;;;;;;2.83;1.20;;;21.10;57.90;;;;;;10353918;28;20056;-34
2022/09/21 04:21:37;;;;;;;2.42;1.15;;;21.10;57.70;;;;;;10341831;28;20086;-34
2022/09/21 04:26:39;;;;;;;2.22;1.00;;;21.10;57.80;;;;;;10345474;28;20573;-34
2022/09/21 04:31:43;;;;;;;1.38;1.00;;;21.00;57.90;;;;;;10351868;28;20491;-35
2022/09/21 04:36:46;;;;;;;3.35;1.10;;;21.10;57.90;;;;;;10348329;28;20097;-35
2022/09/21 04:41:47;;;;;;;2.42;1.67;;;21.10;57.70;;;;;;10353687;28;20082;-35
2022/09/21 04:46:51;;;;;;;2.40;1.00;;;21.10;57.90;;;;;;10350193;28;20082;-34
2022/09/21 04:51:53;;;;;;;1.70;1.00;;;21.10;57.80;;;;;;10331543;28;20066;-36
2022/09/21 04:56:54;;;;;;;1.48;0.90;;;21.10;57.90;;;;;;10344808;28;20082;-35
2022/09/21 05:01:58;;;;;;;1.33;1.00;;;21.10;57.90;;;;;;10349005;28;20456;-34
2022/09/21 05:06:59;;;;;;;2.90;1.13;;;21.10;57.80;;;;;;10345317;28;20104;-34
2022/09/21 05:12:02;;;;;;;2.25;1.23;;;21.00;58.00;;;;;;10343322;28;20149;-34
2022/09/21 05:17:05;;;;;;;3.20;1.05;;;21.00;58.00;;;;;;10344945;28;20054;-35
2022/09/21 05:22:07;;;;;;;3.40;1.30;;;20.90;58.10;;;;;;10351001;28;20046;-34
2022/09/21 05:27:09;;;;;;;3.50;1.30;;;20.90;58.20;;;;;;10353751;28;20077;-35
2022/09/21 05:32:19;;;;;;;2.08;0.93;;;20.90;58.20;;;;;;10355742;28;20108;-35
2022/09/21 05:37:45;;;;;;;2.85;0.65;;;20.90;58.20;;;;;;10352168;28;20042;-35
2022/09/21 05:42:47;;;;;;;1.88;1.10;;;21.00;58.10;;;;;;10343651;28;20104;-35
2022/09/21 05:47:56;;;;;;;1.67;1.13;;;20.90;58.00;;;;;;10339725;28;20889;-34
2022/09/21 05:53:11;;;;;;;2.05;1.15;;;20.90;58.00;;;;;;10347008;28;20667;-34
2022/09/21 05:58:22;;;;;;;7.97;3.20;;;20.90;58.20;;;;;;10333193;28;20104;-35
2022/09/21 06:03:28;;;;;;;4.13;2.22;;;20.80;58.30;;;;;;10360651;28;20042;-35
2022/09/21 06:08:30;;;;;;;3.70;1.80;;;20.80;58.40;;;;;;10358778;28;20044;-35
2022/09/21 06:13:32;;;;;;;5.22;1.30;;;20.80;58.20;;;;;;10361956;28;20056;-35
2022/09/21 06:18:39;;;;;;;2.17;1.00;;;20.80;58.20;;;;;;10365752;28;20556;-35
2022/09/21 06:23:40;;;;;;;4.22;1.00;;;20.90;58.20;;;;;;10340253;28;20045;-35
2022/09/21 06:28:42;;;;;;;1.88;1.00;;;21.00;58.10;;;;;;10355598;28;20104;-35
2022/09/21 06:33:46;;;;;;;1.95;1.08;;;21.00;58.10;;;;;;10337660;28;20046;-34
2022/09/21 06:38:47;;;;;;;2.75;1.33;;;21.00;58.10;;;;;;10351748;28;20739;-35
2022/09/21 06:43:53;;;;;;;1.85;1.00;;;21.10;57.80;;;;;;10347993;28;20089;-35
2022/09/21 06:48:56;;;;;;;1.90;0.95;;;21.10;57.70;;;;;;10337294;28;20065;-35
2022/09/21 06:53:58;;;;;;;6.88;1.38;;;21.20;57.70;;;;;;10347122;28;20614;-34
2022/09/21 06:59:00;;;;;;;3.63;0.93;;;21.20;57.60;;;;;;10346380;28;20081;-35
2022/09/21 07:04:03;;;;;;;2.90;1.40;;;21.10;57.70;;;;;;10350908;28;20694;-35
2022/09/21 07:09:05;;;;;;;3.42;0.95;;;21.20;57.50;;;;;;10351597;28;20073;-36
2022/09/21 07:14:07;;;;;;;6.28;1.02;;;21.20;57.60;;;;;;10343140;28;20049;-35
2022/09/21 07:19:10;;;;;;;4.57;1.30;;;21.20;57.60;;;;;;10355733;28;20058;-34
2022/09/21 07:24:13;;;;;;;4.28;1.27;;;21.20;57.40;;;;;;10347987;28;20434;-35
2022/09/21 07:29:15;;;;;;;7.40;2.20;;;21.20;57.40;;;;;;10349985;28;20046;-35
2022/09/21 07:34:19;;;;;;;5.45;0.98;;;21.20;57.30;;;;;;10357657;28;20045;-36
2022/09/21 07:39:21;;;;;;;6.25;1.30;;;21.20;57.20;;;;;;10345964;28;20085;-35
2022/09/21 07:44:22;;;;;;;6.93;2.08;;;21.20;57.10;;;;;;10353646;28;20100;-35
2022/09/21 07:49:25;;;;;;;3.67;1.30;;;21.20;57.10;;;;;;10363144;28;20601;-35
2022/09/21 07:54:27;;;;;;;6.63;1.10;;;21.10;57.00;;;;;;10363046;28;20144;-35
2022/09/21 07:59:31;;;;;;;5.15;1.27;;;21.20;57.00;;;;;;10353805;28;20077;-33
2022/09/21 08:04:34;;;;;;;5.32;1.40;;;21.20;57.00;;;;;;10355015;28;20066;-34
2022/09/21 08:09:36;;;;;;;4.13;2.05;;;21.20;56.90;;;;;;10355891;28;20506;-36
2022/09/21 08:14:38;;;;;;;3.88;2.00;;;21.20;56.90;;;;;;10362103;28;20158;-35
2022/09/21 08:19:41;;;;;;;5.22;1.90;;;21.20;56.70;;;;;;10357389;28;20088;-35
2022/09/21 08:24:44;;;;;;;3.45;1.85;;;21.30;56.60;;;;;;10368097;28;20187;-35
2022/09/21 08:29:47;;;;;;;5.18;1.63;;;21.30;56.50;;;;;;10354528;28;20054;-35
2022/09/21 08:34:50;;;;;;;3.85;1.23;;;21.30;56.40;;;;;;10354420;28;20090;-36
2022/09/21 08:39:52;;;;;;;4.65;1.38;;;21.20;56.40;;;;;;10358102;28;20472;-35
2022/09/21 08:44:57;;;;;;;4.18;1.33;;;21.30;56.30;;;;;;10360315;28;20046;-34
2022/09/21 08:50:03;;;;;;;4.22;1.50;;;21.30;56.30;;;;;;10354196;28;20072;-35
2022/09/21 08:55:15;;;;;;;4.57;1.30;;;21.30;56.20;;;;;;10348716;28;20054;-35
2022/09/21 09:00:19;;;;;;;3.22;1.27;;;21.30;56.00;;;;;;10344906;28;20061;-35
2022/09/21 09:05:38;;;;;;;5.63;1.10;;;21.30;56.00;;;;;;10341756;28;20096;-34
2022/09/21 09:10:45;;;;;;;1.98;1.00;;;21.30;55.80;;;;;;10341070;28;20526;-34
2022/09/21 09:16:10;;;;;;;3.40;1.40;;;21.30;56.10;;;;;;10362601;28;20136;-35
2022/09/21 09:21:19;;;;;;;4.10;1.45;;;21.40;55.70;;;;;;10337278;28;20081;-35
2022/09/21 09:26:24;;;;;;;4.07;1.33;;;20.90;57.20;;;;;;10351910;28;20568;-34
2022/09/21 09:31:31;;;;;;;3.08;1.30;;;21.40;55.60;;;;;;10342003;28;20047;-34
2022/09/21 09:36:37;;;;;;;2.45;1.30;;;21.40;55.60;;;;;;10351247;28;20108;-34
2022/09/21 09:41:54;;;;;;;5.20;1.23;;;21.50;55.40;;;;;;10352457;28;20065;-34
2022/09/21 09:47:03;;;;;;;4.30;1.20;;;21.60;55.20;;;;;;10348762;28;20077;-35
2022/09/21 09:52:11;;;;;;;2.10;0.98;;;21.50;55.30;;;;;;10338423;28;20054;-35
2022/09/21 09:57:13;;;;;;;3.17;1.10;;;21.60;55.20;;;;;;10339173;28;20058;-34
2022/09/21 10:02:23;;;;;;;1.58;0.60;;;21.60;55.10;;;;;;10347368;28;20042;-34
2022/09/21 10:07:36;;;;;;;3.15;0.98;;;21.20;56.00;;;;;;10341309;28;20085;-35
2022/09/21 10:12:38;;;;;;;9.85;1.65;;;21.50;55.20;;;;;;10347151;28;20146;-35
2022/09/21 10:17:41;;;;;;;4.10;1.17;;;20.50;56.10;;;;;;10362811;28;20046;-34
2022/09/21 10:22:47;;;;;;;1.40;0.70;;;20.30;55.70;;;;;;10341163;28;20539;-33
2022/09/21 10:27:51;;;;;;;1.83;0.82;;;20.50;57.90;;;;;;10350801;28;20605;-35
2022/09/21 10:32:56;;;;;;;7.00;1.10;;;21.30;54.80;;;;;;10347969;28;20054;-34
2022/09/21 10:38:17;;;;;;;9.52;1.30;;;20.60;51.50;;;;;;10342033;28;20137;-34
2022/09/21 10:43:25;;;;;;;1.67;0.93;;;20.20;54.30;;;;;;10354320;28;21345;-35
2022/09/21 10:48:28;;;;;;;2.80;0.90;;;19.80;57.80;;;;;;10357988;28;20053;-34
2022/09/21 10:53:33;;;;;;;7.72;1.05;;;21.20;55.80;;;;;;10363300;28;20131;-35
2022/09/21 10:58:35;;;;;;;4.28;0.90;;;20.80;51.40;;;;;;10360156;28;20058;-34
2022/09/21 11:03:47;;;;;;;4.47;1.05;;;20.30;57.90;;;;;;10354741;28;20620;-34
2022/09/21 11:08:55;;;;;;;3.03;0.90;;;21.30;55.10;;;;;;10346781;28;20053;-35
2022/09/21 11:14:03;;;;;;;3.17;1.15;;;21.60;54.70;;;;;;10356264;28;20077;-34
2022/09/21 11:19:18;;;;;;;3.08;0.95;;;21.60;54.50;;;;;;10348995;28;20069;-35
2022/09/21 11:24:33;;;;;;;2.28;0.60;;;21.70;54.40;;;;;;10351082;28;20104;-35
2022/09/21 11:29:46;;;;;;;5.45;0.77;;;21.70;54.30;;;;;;10351775;28;20060;-34
2022/09/21 11:35:15;;;;;;;6.60;1.33;;;21.70;55.20;;;;;;10363437;28;20144;-35
2022/09/21 11:40:34;;;;;;;2.45;0.90;;;21.80;54.60;;;;;;10350110;28;20511;-35
2022/09/21 11:45:53;;;;;;;4.43;1.67;;;21.90;54.70;;;;;;10369409;28;20041;-35
2022/09/21 11:51:06;;;;;;;5.65;2.33;;;21.90;54.40;;;;;;10352783;28;20041;-35
2022/09/21 11:56:25;;;;;;;14.27;3.67;;;21.90;54.20;;;;;;10358533;28;20141;-34
2022/09/21 12:01:45;;;;;;;8.48;4.13;;;21.70;52.80;;;;;;10353093;28;20250;-34
2022/09/21 12:07:03;;;;;;;7.82;2.92;;;21.80;54.10;;;;;;10344127;28;20467;-37
2022/09/21 12:12:13;;;;;;;7.90;2.42;;;21.90;53.60;;;;;;10337575;28;20180;-37
2022/09/21 12:17:23;;;;;;;10.52;3.88;;;22.00;53.60;;;;;;10332104;28;20145;-35
2022/09/21 12:22:29;;;;;;;11.70;3.80;;;22.00;53.70;;;;;;10347224;28;20138;-35
2022/09/21 12:27:40;;;;;;;7.35;2.78;;;22.00;53.70;;;;;;10340624;28;20397;-35
2022/09/21 12:32:52;;;;;;;9.35;3.35;;;22.00;53.60;;;;;;10349671;28;20045;-34
2022/09/21 12:37:58;;;;;;;10.80;2.38;;;22.00;53.50;;;;;;10343029;28;20053;-35
2022/09/21 12:43:13;;;;;;;6.07;1.98;;;22.00;53.40;;;;;;10355157;28;20100;-35
2022/09/21 12:48:24;;;;;;;8.60;1.67;;;22.10;53.10;;;;;;10356487;28;20047;-34
2022/09/21 12:53:30;;;;;;;4.95;1.40;;;22.10;53.20;;;;;;10347265;28;20617;-34
2022/09/21 12:58:50;;;;;;;3.15;1.00;;;22.10;53.10;;;;;;10358915;28;20049;-35
2022/09/21 13:04:03;;;;;;;5.70;1.27;;;22.00;53.10;;;;;;10344837;28;20487;-35
2022/09/21 13:09:09;;;;;;;4.97;1.20;;;22.10;53.00;;;;;;10350310;28;20131;-34
2022/09/21 13:14:13;;;;;;;5.13;0.98;;;22.20;52.70;;;;;;10351069;28;20096;-35
2022/09/21 13:19:21;;;;;;;1.35;0.70;;;22.10;52.30;;;;;;10360923;28;20073;-35
2022/09/21 13:24:27;;;;;;;4.07;1.15;;;21.80;53.60;;;;;;10338173;28;20471;-35
2022/09/21 13:29:32;;;;;;;3.15;0.70;;;21.60;51.80;;;;;;10346773;28;20129;-34
2022/09/21 13:34:35;;;;;;;7.25;1.02;;;21.80;53.70;;;;;;10356245;28;20081;-34
2022/09/21 13:39:43;;;;;;;4.47;1.70;;;22.10;52.90;;;;;;10349418;28;20055;-35
2022/09/21 13:44:47;;;;;;;2.65;0.60;;;22.30;52.50;;;;;;10344723;28;20499;-35
2022/09/21 13:49:51;;;;;;;2.70;0.70;;;22.20;53.30;;;;;;10338215;28;20076;-35
2022/09/21 13:54:56;;;;;;;3.22;0.82;;;22.00;53.20;;;;;;10345109;28;20118;-35
2022/09/21 14:00:33;;;;;;;3.15;1.00;;;22.30;52.40;;;;;;10331438;28;20404;-36
2022/09/21 14:05:40;;;;;;;3.65;1.60;;;22.20;52.70;;;;;;10323241;28;20101;-36
2022/09/21 14:10:51;;;;;;;5.68;2.03;;;22.20;52.70;;;;;;10341036;28;20046;-34
2022/09/21 14:15:54;;;;;;;2.22;0.70;;;22.40;52.30;;;;;;10350260;28;20058;-34
2022/09/21 14:21:17;;;;;;;4.43;1.27;;;22.20;51.90;;;;;;10340108;28;20487;-35
2022/09/21 14:26:31;;;;;;;3.35;0.90;;;22.20;52.80;;;;;;10342778;28;20461;-35
2022/09/21 14:31:38;;;;;;;2.58;0.70;;;22.50;52.10;;;;;;10338249;28;20649;-35
2022/09/21 14:36:44;;;;;;;3.00;0.70;;;22.60;51.90;;;;;;10347308;28;20050;-34
2022/09/21 14:41:49;;;;;;;3.25;0.65;;;22.60;51.90;;;;;;10354083;28;20045;-34
2022/09/21 14:47:07;;;;;;;6.53;0.50;;;22.70;52.00;;;;;;10348287;28;20046;-35
2022/09/21 14:52:30;;;;;;;3.03;0.70;;;22.70;52.10;;;;;;10360311;28;20137;-38
2022/09/21 14:58:09;;;;;;;13.40;3.25;;;22.80;52.10;;;;;;10366819;28;20471;-38
2022/09/21 15:03:36;;;;;;;14.02;3.25;;;22.90;52.10;;;;;;10355605;28;21804;-34
2022/09/21 15:14:20;;;;;;;9.32;2.58;;;22.90;52.20;;;;;;10359774;28;20050;-35
2022/09/21 15:19:26;;;;;;;5.28;1.80;;;22.80;52.20;;;;;;10357876;28;20077;-35
2022/09/21 15:24:32;;;;;;;4.25;1.38;;;22.90;52.20;;;;;;10353345;28;20054;-37
2022/09/21 15:29:34;;;;;;;9.07;2.47;;;23.00;52.20;;;;;;10352440;28;20124;-33
2022/09/21 15:34:37;;;;;;;4.40;0.98;;;23.00;52.00;;;;;;10351022;28;20142;-35
2022/09/21 15:39:40;;;;;;;8.27;1.33;;;23.00;52.10;;;;;;10353040;28;20495;-34
2022/09/21 15:44:45;;;;;;;8.10;1.60;;;23.00;52.10;;;;;;10354061;28;20884;-34
2022/09/21 15:49:50;;;;;;;5.47;1.70;;;23.00;52.00;;;;;;10352598;28;20076;-34
2022/09/21 15:54:56;;;;;;;8.70;1.42;;;23.10;52.00;;;;;;10350868;28;20061;-35
2022/09/21 15:59:58;;;;;;;6.28;1.23;;;23.10;51.70;;;;;;10346175;28;20050;-35
2022/09/21 16:05:02;;;;;;;3.47;0.95;;;23.10;51.70;;;;;;10352783;28;20073;-36
2022/09/21 16:10:35;;;;;;;4.00;0.98;;;23.10;51.50;;;;;;10349841;28;20099;-34
2022/09/21 16:15:38;;;;;;;4.55;1.13;;;23.20;51.40;;;;;;10352563;28;20137;-35
2022/09/21 16:20:44;;;;;;;2.55;0.75;;;23.20;51.30;;;;;;10350274;28;20078;-34
2022/09/21 16:25:53;;;;;;;2.50;0.80;;;23.30;51.20;;;;;;10349896;28;20481;-34
2022/09/21 16:30:56;;;;;;;3.47;0.90;;;23.30;51.30;;;;;;10350752;28;20672;-34
2022/09/21 16:36:00;;;;;;;2.22;0.70;;;23.30;51.30;;;;;;10350546;28;20079;-35
2022/09/21 16:41:03;;;;;;;2.13;0.90;;;23.30;51.40;;;;;;10350930;28;20134;-36
2022/09/21 16:46:07;;;;;;;1.17;0.57;;;23.30;51.30;;;;;;10350577;28;20696;-40
2022/09/21 16:51:13;;;;;;;1.00;0.50;;;23.30;51.30;;;;;;10351706;28;20042;-35
2022/09/21 16:56:16;;;;;;;2.15;0.60;;;23.30;51.40;;;;;;10351177;28;20046;-35
2022/09/21 17:01:19;;;;;;;4.43;0.82;;;23.30;51.30;;;;;;10345588;28;20511;-35
2022/09/21 17:06:22;;;;;;;2.78;0.55;;;23.20;51.30;;;;;;10341726;28;20474;-34
2022/09/21 17:11:24;;;;;;;3.92;0.70;;;23.20;51.30;;;;;;10339273;28;20545;-35
2022/09/21 17:16:26;;;;;;;3.03;0.60;;;23.30;51.50;;;;;;10340596;28;20169;-34
2022/09/21 17:21:30;;;;;;;;;;;23.30;51.80;;;;;;10340618;28;20056;-35
2022/09/21 17:26:33;;;;;;;2.53;0.77;;;23.30;51.90;;;;;;10344353;28;19926;-39
2022/09/21 17:31:37;;;;;;;2.47;1.00;;;23.30;52.00;;;;;;10338511;28;20046;-34
2022/09/21 17:36:40;;;;;;;3.85;0.73;;;23.30;52.10;;;;;;10341587;28;20056;-34
2022/09/21 17:41:50;;;;;;;2.47;0.90;;;23.30;52.30;;;;;;10349546;28;20630;-34
2022/09/21 17:46:58;;;;;;;3.50;0.80;;;23.30;52.30;;;;;;10349390;28;20056;-35
2022/09/21 17:57:39;;;;;;;4.77;1.00;;;23.20;52.40;;;;;;10349253;28;20458;-36
2022/09/21 18:02:41;;;;;;;3.53;0.75;;;23.20;52.50;;;;;;10343986;28;20056;-34
2022/09/21 18:07:45;;;;;;;5.43;1.23;;;23.20;52.60;;;;;;10352722;28;20057;-34
2022/09/21 18:13:18;;;;;;;5.05;0.80;;;23.20;52.60;;;;;;10339122;28;20400;-35
2022/09/21 18:18:30;;;;;;;4.00;0.80;;;23.20;52.70;;;;;;10334930;28;20182;-33
2022/09/21 18:23:43;;;;;;;2.17;1.10;;;23.20;52.70;;;;;;10347318;28;20046;-35
2022/09/21 18:28:50;;;;;;;3.67;1.00;;;23.20;52.80;;;;;;10348761;28;20054;-35
2022/09/21 18:34:02;;;;;;;3.72;0.70;;;23.10;52.80;;;;;;10348758;28;20076;-34
2022/09/21 18:39:22;;;;;;;6.63;1.35;;;23.10;52.80;;;;;;10348367;28;20050;-35
2022/09/21 18:44:28;;;;;;;3.53;1.15;;;23.10;53.00;;;;;;10346877;28;20044;-33
2022/09/21 18:49:48;;;;;;;4.30;1.15;;;23.10;53.10;;;;;;10346738;28;20054;-34
2022/09/21 18:54:52;;;;;;;4.97;1.50;;;23.10;53.10;;;;;;10344357;28;20246;-35
2022/09/21 18:59:54;;;;;;;5.78;1.52;;;23.00;53.20;;;;;;10348342;28;20455;-34
2022/09/21 19:04:58;;;;;;;9.23;1.40;;;23.00;53.20;;;;;;10334620;28;20041;-34
2022/09/21 19:10:12;;;;;;;3.22;1.42;;;23.00;53.20;;;;;;10346368;28;21023;-35
2022/09/21 19:15:21;;;;;;;7.53;1.80;;;22.90;53.30;;;;;;10351198;28;20145;-36
2022/09/21 19:20:48;;;;;;;5.75;1.58;;;22.90;53.40;;;;;;10347759;28;20560;-36
2022/09/21 19:25:53;;;;;;;8.88;2.17;;;22.90;53.40;;;;;;10349939;28;20053;-35
2022/09/21 19:31:01;;;;;;;5.03;1.70;;;22.90;53.60;;;;;;10352451;28;20481;-36
2022/09/21 19:36:04;;;;;;;10.02;2.30;;;22.90;53.50;;;;;;10352564;28;20048;-35
2022/09/21 19:41:24;;;;;;;13.85;2.58;;;22.80;53.50;;;;;;10350391;28;20066;-35
2022/09/21 19:46:33;;;;;;;9.38;1.70;;;22.70;53.50;;;;;;10346621;28;20131;-33
2022/09/21 19:51:41;;;;;;;6.13;1.83;;;22.70;53.60;;;;;;10354422;28;20077;-35
2022/09/21 20:02:11;;;;;;;8.82;2.03;;;22.70;53.70;;;;;;10351664;28;20054;-34
2022/09/21 20:07:21;;;;;;;8.50;1.80;;;22.60;53.80;;;;;;10354005;28;20038;-36
2022/09/21 20:12:28;;;;;;;6.22;1.65;;;22.60;53.80;;;;;;10351943;28;20050;-35
2022/09/21 20:17:36;;;;;;;8.52;2.00;;;22.60;53.80;;;;;;10354368;28;20061;-36
2022/09/21 20:22:39;;;;;;;11.32;2.20;;;22.60;53.90;;;;;;10352408;28;20539;-35
2022/09/21 20:27:46;;;;;;;9.82;2.17;;;22.50;53.90;;;;;;10355428;28;20082;-36
2022/09/21 20:32:51;;;;;;;6.95;2.28;;;22.50;53.90;;;;;;10350249;28;20073;-34
2022/09/21 20:37:54;;;;;;;9.88;2.30;;;22.40;53.90;;;;;;10350913;28;20517;-36
2022/09/21 20:42:59;;;;;;;10.15;2.17;;;22.50;53.90;;;;;;10359839;28;20050;-36
2022/09/21 20:48:11;;;;;;;6.38;1.90;;;22.40;54.00;;;;;;10355328;28;20065;-35
2022/09/21 20:53:14;;;;;;;7.25;2.10;;;22.40;54.00;;;;;;10357689;28;20496;-35
2022/09/21 20:58:17;;;;;;;10.10;2.95;;;22.40;54.00;;;;;;10356083;28;20489;-35
2022/09/21 21:03:19;;;;;;;8.15;3.28;;;22.30;54.00;;;;;;10354909;28;20455;-35
2022/09/21 21:08:21;;;;;;;;;;;22.30;54.10;;;;;;10352629;28;20053;-35
2022/09/21 21:13:24;;;;;;;6.20;2.53;;;22.30;54.00;;;;;;10353881;28;20023;-35
2022/09/21 21:18:26;;;;;;;8.38;4.15;;;22.30;54.00;;;;;;10353337;28;20060;-34
2022/09/21 21:23:28;;;;;;;9.13;4.97;;;22.30;54.10;;;;;;10351366;28;20184;-34
2022/09/21 21:28:32;;;;;;;9.38;4.65;;;22.20;54.00;;;;;;10355116;28;20053;-35
2022/09/21 21:33:33;;;;;;;11.88;6.05;;;22.20;54.10;;;;;;10351801;28;20406;-35
2022/09/21 21:38:37;;;;;;;9.15;5.57;;;22.20;54.10;;;;;;10351317;28;20041;-34
2022/09/21 21:43:41;;;;;;;11.93;4.80;;;22.10;54.10;;;;;;10348750;28;21619;-33
2022/09/21 21:48:44;;;;;;;11.27;4.80;;;22.10;54.10;;;;;;10340680;28;20478;-35
2022/09/21 21:53:46;;;;;;;10.73;5.22;;;22.10;54.10;;;;;;10351121;28;20054;-35
2022/09/21 21:58:52;;;;;;;13.25;6.30;;;22.00;54.10;;;;;;10353084;28;20160;-35
2022/09/21 22:03:56;;;;;;;10.43;5.15;;;22.00;54.20;;;;;;10351481;28;20116;-35
2022/09/21 22:08:59;;;;;;;8.27;5.38;;;21.90;54.20;;;;;;10345629;28;20467;-34
2022/09/21 22:14:03;;;;;;;8.75;4.80;;;21.90;54.20;;;;;;10345445;28;20049;-34
2022/09/21 22:19:07;;;;;;;7.43;4.78;;;21.90;54.20;;;;;;10349085;28;20053;-35
2022/09/21 22:24:09;;;;;;;8.00;4.82;;;21.90;54.30;;;;;;10351591;28;20130;-36
2022/09/21 22:29:14;;;;;;;11.20;6.22;;;21.80;54.20;;;;;;10350643;28;20129;-34
2022/09/21 22:34:16;;;;;;;8.98;4.72;;;21.80;54.20;;;;;;10352307;28;20135;-34
2022/09/21 22:39:18;;;;;;;8.27;4.40;;;21.80;54.20;;;;;;10349839;28;20112;-35
2022/09/21 22:44:21;;;;;;;13.32;6.03;;;21.80;54.20;;;;;;10357363;28;20082;-32
2022/09/21 22:49:23;;;;;;;7.63;4.68;;;21.80;54.30;;;;;;10359837;28;20069;-35
2022/09/21 22:54:26;;;;;;;7.35;4.25;;;21.70;54.20;;;;;;10357603;28;20049;-36
2022/09/21 22:59:29;;;;;;;11.20;3.63;;;21.70;54.30;;;;;;10357637;28;20108;-35
2022/09/21 23:04:31;;;;;;;6.80;3.90;;;21.70;54.30;;;;;;10355464;28;20129;-34
2022/09/21 23:09:33;;;;;;;11.32;4.40;;;21.60;54.30;;;;;;10356168;28;20073;-36
2022/09/21 23:14:36;;;;;;;5.10;2.95;;;21.70;54.30;;;;;;10358586;28;20131;-34
2022/09/21 23:19:38;;;;;;;7.70;3.72;;;21.60;54.30;;;;;;10357981;28;20149;-36
2022/09/21 23:24:40;;;;;;;6.90;4.20;;;21.60;54.30;;;;;;10357269;28;20103;-36
2022/09/21 23:29:43;;;;;;;6.05;3.15;;;21.60;54.30;;;;;;10359675;28;20568;-35
2022/09/21 23:34:44;;;;;;;6.90;4.05;;;21.60;54.30;;;;;;10359319;28;20157;-34
2022/09/21 23:39:47;;;;;;;7.40;3.42;;;21.50;54.30;;;;;;10358300;28;20631;-35
2022/09/21 23:44:50;;;;;;;5.40;3.22;;;21.50;54.30;;;;;;10355389;28;20088;-35
2022/09/21 23:49:52;;;;;;;6.97;3.80;;;21.50;54.40;;;;;;10357134;28;20046;-35
2022/09/21 23:54:54;;;;;;;6.80;4.07;;;21.50;54.50;;;;;;10357624;28;20145;-34
2022/09/21 23:59:57;;;;;;;8.98;3.42;;;21.40;54.40;;;;;;10357857;28;20053;-35
